Time;durP1;ratioP1;P1;durP2;ratioP2;P2;SDS_P1;SDS_P2;PMS_P1;PMS_P2;Temp;Humidity;BMP_temperature;BMP_pressure;BME280_temperature;BME280_humidity;BME280_pressure;Samples;Min_cycle;Max_cycle;Signal;HPM_P1;HPM_P2
2022/01/23 00:00:58;;;;;;;20.02;13.65;;;6.60;99.90;;;;;;5054139;28;20029;-48
2022/01/23 00:03:23;;;;;;;20.38;13.73;;;6.70;99.90;;;;;;5053584;28;20021;-47
2022/01/23 00:05:51;;;;;;;22.02;14.82;;;6.70;99.90;;;;;;5051674;28;20040;-49
2022/01/23 00:08:20;;;;;;;22.35;14.80;;;6.70;99.90;;;;;;5052944;28;20369;-49
2022/01/23 00:10:47;;;;;;;28.10;15.60;;;6.60;99.90;;;;;;5053044;28;20626;-49
2022/01/23 00:13:26;;;;;;;23.63;15.00;;;6.50;99.90;;;;;;5051377;28;20086;-49
2022/01/23 00:18:36;;;;;;;22.30;14.60;;;6.60;99.90;;;;;;5052782;28;20078;-48
2022/01/23 00:21:02;;;;;;;23.45;15.80;;;6.60;99.90;;;;;;5051416;28;20029;-46
2022/01/23 00:23:34;;;;;;;23.10;14.90;;;6.60;99.90;;;;;;5051627;28;20032;-47
2022/01/23 00:31:29;;;;;;;21.48;14.95;;;6.70;99.90;;;;;;5052934;28;20040;-44
2022/01/23 00:33:56;;;;;;;26.88;15.45;;;6.60;99.90;;;;;;5052239;28;20056;-45
2022/01/23 00:36:22;;;;;;;22.70;15.48;;;6.50;99.90;;;;;;5052500;28;20121;-50
2022/01/23 00:38:48;;;;;;;25.67;15.35;;;6.50;99.90;;;;;;5052587;28;20028;-48
2022/01/23 00:41:13;;;;;;;21.25;15.82;;;6.50;99.90;;;;;;5052339;28;20098;-47
2022/01/23 00:43:42;;;;;;;22.67;15.75;;;6.60;99.90;;;;;;5051743;28;20086;-49
2022/01/23 00:46:22;;;;;;;26.13;16.23;;;6.60;99.90;;;;;;5052210;28;20025;-44
2022/01/23 00:51:26;;;;;;;23.75;15.85;;;6.40;99.90;;;;;;5052052;28;20028;-49
2022/01/23 00:53:52;;;;;;;24.05;16.42;;;6.40;99.90;;;;;;5051913;28;20369;-50
2022/01/23 00:56:17;;;;;;;25.98;17.48;;;6.40;99.90;;;;;;5052070;28;20074;-48
2022/01/23 00:58:44;;;;;;;26.48;16.52;;;6.40;99.90;;;;;;5052213;28;20078;-43
2022/01/23 01:01:10;;;;;;;24.75;17.38;;;6.40;99.90;;;;;;5051993;28;20024;-44
2022/01/23 01:03:36;;;;;;;25.23;17.45;;;6.40;99.90;;;;;;5051689;28;20151;-42
2022/01/23 01:06:01;;;;;;;24.33;15.77;;;6.40;99.90;;;;;;5050431;28;20067;-49
2022/01/23 01:08:27;;;;;;;27.33;18.65;;;6.40;99.90;;;;;;5050688;28;20391;-50
2022/01/23 01:13:55;;;;;;;24.73;16.92;;;6.50;99.90;;;;;;5051998;28;20052;-46
2022/01/23 01:32:48;;;;;;;27.92;18.55;;;6.50;99.90;;;;;;5051740;28;20078;-48
2022/01/23 01:35:29;;;;;;;30.35;19.42;;;6.50;99.90;;;;;;5051312;28;20029;-45
2022/01/23 01:37:55;;;;;;;29.35;19.30;;;6.40;99.90;;;;;;5051166;28;20029;-46
2022/01/23 01:40:24;;;;;;;30.45;19.27;;;6.40;99.90;;;;;;5051351;28;20075;-46
2022/01/23 01:42:50;;;;;;;26.95;18.80;;;6.40;99.90;;;;;;5051272;28;20071;-45
2022/01/23 01:45:28;;;;;;;28.30;19.58;;;6.40;99.90;;;;;;5051297;28;20049;-47
2022/01/23 01:47:57;;;;;;;32.97;20.65;;;6.40;99.90;;;;;;5051678;28;20025;-45
2022/01/23 01:50:23;;;;;;;35.03;20.70;;;6.50;99.90;;;;;;5051300;28;20203;-46
2022/01/23 01:52:48;;;;;;;33.22;21.15;;;6.50;99.90;;;;;;5071166;23;20427;-49
2022/01/23 01:55:22;;;;;;;31.95;21.40;;;6.60;99.90;;;;;;5051472;28;20029;-50
2022/01/23 01:57:54;;;;;;;32.90;20.88;;;6.50;99.90;;;;;;5051454;28;20024;-46
2022/01/23 02:08:18;;;;;;;35.88;23.20;;;6.60;99.90;;;;;;4989289;28;20642;-50
2022/01/23 02:08:56;;;;;;;34.47;22.00;;;6.60;99.90;;;;;;5020368;28;20095;-50
2022/01/23 02:11:50;;;;;;;36.30;22.08;;;6.60;99.90;;;;;;5031230;28;20397;-49
2022/01/23 02:14:34;;;;;;;38.25;22.02;;;6.70;99.90;;;;;;5029547;28;20485;-50
2022/01/23 02:52:32;;;;;;;39.90;23.67;;;6.40;99.90;;;;;;5034243;28;20076;-49
2022/01/23 02:55:09;;;;;;;46.97;25.50;;;6.40;99.90;;;;;;5034090;28;20034;-51
2022/01/23 02:57:51;;;;;;;38.90;24.88;;;6.40;99.90;;;;;;5034595;28;20041;-54
2022/01/23 03:00:19;;;;;;;38.47;24.15;;;6.50;99.90;;;;;;5034145;28;20341;-54
2022/01/23 03:02:52;;;;;;;35.22;23.33;;;6.60;99.90;;;;;;5034028;28;20564;-50
2022/01/23 03:10:48;;;;;;;38.28;23.55;;;6.50;99.90;;;;;;5034069;28;20033;-51
2022/01/23 03:13:38;;;;;;;37.38;22.95;;;6.40;99.90;;;;;;5033085;28;20044;-48
2022/01/23 03:24:40;;;;;;;37.70;23.27;;;6.40;99.90;;;;;;5034046;28;20124;-53
2022/01/23 03:32:24;;;;;;;37.80;21.90;;;6.50;99.90;;;;;;5033845;28;20040;-50
2022/01/23 03:34:50;;;;;;;41.15;23.98;;;6.50;99.90;;;;;;5033454;28;20117;-51
2022/01/23 03:37:16;;;;;;;44.55;25.75;;;6.50;99.90;;;;;;5033632;28;20069;-50
2022/01/23 03:39:42;;;;;;;44.33;26.17;;;6.50;99.90;;;;;;5033550;28;20484;-51
2022/01/23 03:42:08;;;;;;;43.45;25.95;;;6.50;99.90;;;;;;5034051;28;20079;-49
2022/01/23 03:44:38;;;;;;;39.58;25.27;;;6.40;99.90;;;;;;5033451;28;20017;-47
2022/01/23 03:47:20;;;;;;;41.20;24.63;;;6.50;99.90;;;;;;5033822;28;20025;-47
2022/01/23 03:49:48;;;;;;;39.72;24.45;;;6.50;99.90;;;;;;5015593;28;20033;-51
2022/01/23 03:52:15;;;;;;;40.42;25.63;;;6.40;99.90;;;;;;5033207;28;20055;-51
2022/01/23 03:54:41;;;;;;;41.17;24.75;;;6.40;99.90;;;;;;5033037;28;20029;-49
2022/01/23 03:57:07;;;;;;;43.67;24.42;;;6.40;99.90;;;;;;5032872;28;20428;-47
2022/01/23 03:59:34;;;;;;;44.25;24.05;;;6.30;99.90;;;;;;5032623;28;20060;-50
2022/01/23 04:02:00;;;;;;;40.50;24.50;;;6.40;99.90;;;;;;5015325;28;20057;-52
2022/01/23 04:06:58;;;;;;;38.63;24.70;;;6.40;99.90;;;;;;5033570;28;20057;-50
2022/01/23 04:09:24;;;;;;;40.25;24.58;;;6.30;99.90;;;;;;5033115;28;20444;-50
2022/01/23 04:11:50;;;;;;;45.75;23.90;;;6.30;99.90;;;;;;5032975;28;20032;-48
2022/01/23 04:14:17;;;;;;;43.58;25.95;;;6.30;99.90;;;;;;5032731;28;20096;-53
2022/01/23 04:19:18;;;;;;;42.85;23.88;;;6.40;99.90;;;;;;5032771;28;20028;-52
2022/01/23 04:47:10;;;;;;;41.10;24.45;;;6.20;99.90;;;;;;5032253;28;20036;-53
2022/01/23 04:59:48;;;;;;;40.00;23.70;;;6.30;99.90;;;;;;5032296;28;20072;-49
2022/01/23 05:05:08;;;;;;;44.05;24.42;;;6.30;99.90;;;;;;4961116;28;20038;-55
2022/01/23 05:07:34;;;;;;;47.08;25.15;;;6.30;99.90;;;;;;5032080;28;20404;-50
2022/01/23 05:10:00;;;;;;;38.47;23.73;;;6.30;99.90;;;;;;5031783;28;20022;-50
2022/01/23 05:12:30;;;;;;;45.13;24.35;;;6.30;99.90;;;;;;5031794;28;20052;-51
2022/01/23 05:14:56;;;;;;;39.63;23.10;;;6.20;99.90;;;;;;5031595;28;20128;-50
2022/01/23 05:17:21;;;;;;;45.65;24.60;;;6.20;99.90;;;;;;5031855;28;20088;-54
2022/01/23 05:19:47;;;;;;;39.83;23.98;;;6.20;99.90;;;;;;5031753;28;20057;-54
2022/01/23 05:25:06;;;;;;;42.10;25.05;;;6.20;99.90;;;;;;5031374;28;20112;-50
2022/01/23 05:27:32;;;;;;;39.65;22.95;;;6.20;99.90;;;;;;5031852;28;20052;-52
2022/01/23 05:29:59;;;;;;;42.00;24.20;;;6.10;99.90;;;;;;5031825;28;20472;-51
2022/01/23 05:32:33;;;;;;;44.92;25.15;;;6.10;99.90;;;;;;5031787;28;20026;-50
2022/01/23 05:34:59;;;;;;;41.75;24.33;;;6.10;99.90;;;;;;5031652;28;20104;-49
2022/01/23 05:37:24;;;;;;;45.67;26.10;;;6.20;99.90;;;;;;5031548;28;20111;-49
2022/01/23 05:39:50;;;;;;;41.33;24.73;;;6.20;99.90;;;;;;5031487;28;20030;-48
2022/01/23 05:42:15;;;;;;;42.33;24.25;;;6.20;99.90;;;;;;5031413;28;20025;-49
2022/01/23 05:44:42;;;;;;;42.97;25.15;;;6.20;99.90;;;;;;5031149;28;20412;-56
2022/01/23 05:47:09;;;;;;;45.13;24.40;;;6.20;99.90;;;;;;5013762;28;20488;-52
2022/01/23 05:49:35;;;;;;;42.45;24.55;;;6.20;99.90;;;;;;5031328;28;20037;-49
2022/01/23 05:52:02;;;;;;;42.83;23.80;;;6.20;99.90;;;;;;5031222;28;20083;-49
2022/01/23 05:54:27;;;;;;;43.20;25.15;;;6.20;99.90;;;;;;5031298;28;20033;-53
2022/01/23 05:56:53;;;;;;;38.35;24.67;;;6.20;99.90;;;;;;5031323;28;20047;-49
2022/01/23 05:59:21;;;;;;;38.70;24.10;;;6.20;99.90;;;;;;5013338;28;20029;-49
2022/01/23 06:01:47;;;;;;;43.22;25.17;;;6.30;99.90;;;;;;5031388;28;20068;-50
2022/01/23 06:04:13;;;;;;;44.95;25.02;;;6.30;99.90;;;;;;5031205;28;20029;-48
2022/01/23 06:06:39;;;;;;;44.53;23.75;;;6.40;99.90;;;;;;5031188;28;20060;-50
2022/01/23 06:09:05;;;;;;;42.03;24.48;;;6.40;99.90;;;;;;5031375;28;20451;-51
2022/01/23 06:11:30;;;;;;;41.95;24.33;;;6.40;99.90;;;;;;5013477;28;20132;-54
2022/01/23 06:13:56;;;;;;;42.92;24.58;;;6.40;99.90;;;;;;5030883;28;20509;-54
2022/01/23 06:16:21;;;;;;;41.47;24.20;;;6.40;99.90;;;;;;5030960;28;20034;-51
2022/01/23 06:18:47;;;;;;;35.83;21.63;;;6.40;99.90;;;;;;5031117;28;20082;-52
2022/01/23 06:21:18;;;;;;;43.03;23.70;;;6.40;99.90;;;;;;5031844;28;20037;-50
2022/01/23 06:23:43;;;;;;;39.97;23.83;;;6.40;99.90;;;;;;5034764;28;20022;-53
2022/01/23 06:26:09;;;;;;;41.75;23.20;;;6.40;99.90;;;;;;5035081;28;20143;-53
2022/01/23 06:28:44;;;;;;;40.40;23.58;;;6.40;99.90;;;;;;5034783;28;20053;-49
2022/01/23 06:31:09;;;;;;;38.05;22.33;;;6.40;99.90;;;;;;5034837;28;20029;-50
2022/01/23 06:33:35;;;;;;;40.15;23.35;;;6.40;99.90;;;;;;5034563;28;20017;-49
2022/01/23 06:36:02;;;;;;;38.42;21.90;;;6.40;99.90;;;;;;5034650;28;20069;-50
2022/01/23 06:38:28;;;;;;;40.10;23.77;;;6.30;99.90;;;;;;5034655;28;20029;-53
2022/01/23 06:40:54;;;;;;;44.28;23.95;;;6.30;99.90;;;;;;5034497;28;20025;-49
2022/01/23 06:43:19;;;;;;;39.50;23.48;;;6.30;99.90;;;;;;5034395;28;20264;-51
2022/01/23 06:45:45;;;;;;;37.30;22.67;;;6.30;99.90;;;;;;5034700;28;20025;-50
2022/01/23 06:48:10;;;;;;;34.78;21.38;;;6.30;99.90;;;;;;5034489;28;20109;-52
2022/01/23 06:50:36;;;;;;;41.45;23.55;;;6.20;99.90;;;;;;5034448;28;20033;-50
2022/01/23 06:53:01;;;;;;;36.83;22.20;;;6.20;99.90;;;;;;5033996;28;20075;-51
2022/01/23 06:55:27;;;;;;;36.95;22.80;;;6.20;99.90;;;;;;5034577;28;20522;-50
2022/01/23 06:57:52;;;;;;;40.60;22.80;;;6.20;99.90;;;;;;5034121;28;20076;-53
2022/01/23 07:00:18;;;;;;;40.03;23.65;;;6.20;99.90;;;;;;5033974;28;20044;-48
2022/01/23 07:02:43;;;;;;;38.55;22.52;;;6.20;99.90;;;;;;5033770;28;20027;-49
2022/01/23 07:05:09;;;;;;;37.17;23.67;;;6.20;99.90;;;;;;5034156;28;20072;-51
2022/01/23 07:07:34;;;;;;;36.85;23.42;;;6.20;99.90;;;;;;5034283;28;20404;-51
2022/01/23 07:10:00;;;;;;;37.53;23.33;;;6.30;99.90;;;;;;5034115;28;20036;-51
2022/01/23 07:12:25;;;;;;;38.72;22.80;;;6.30;99.90;;;;;;5033988;28;20048;-52
2022/01/23 07:14:51;;;;;;;40.67;23.33;;;6.30;99.90;;;;;;5033746;28;20021;-51
2022/01/23 07:17:16;;;;;;;37.60;23.83;;;6.30;99.90;;;;;;5034041;28;20449;-50
2022/01/23 07:19:42;;;;;;;38.92;23.73;;;6.30;99.90;;;;;;5033799;28;20067;-53
2022/01/23 07:22:07;;;;;;;44.47;24.70;;;6.30;99.90;;;;;;5034039;28;20038;-50
2022/01/23 07:24:33;;;;;;;38.25;24.05;;;6.30;99.90;;;;;;5033668;28;20499;-48
2022/01/23 07:27:11;;;;;;;38.55;22.08;;;6.30;99.90;;;;;;5033778;28;20527;-49
2022/01/23 07:29:37;;;;;;;35.40;21.90;;;6.30;99.90;;;;;;5033669;28;20028;-48
2022/01/23 07:32:08;;;;;;;37.10;23.50;;;6.30;99.90;;;;;;5015538;28;20030;-53
2022/01/23 07:34:33;;;;;;;36.88;23.13;;;6.30;99.90;;;;;;5033326;28;20022;-51
2022/01/23 07:36:59;;;;;;;37.65;23.60;;;6.30;99.90;;;;;;5033411;28;20116;-51
2022/01/23 07:39:24;;;;;;;38.85;23.67;;;6.40;99.90;;;;;;5015699;28;20112;-49
2022/01/23 07:41:50;;;;;;;39.20;23.90;;;6.30;99.90;;;;;;5033755;28;20699;-47
2022/01/23 07:44:15;;;;;;;40.22;25.10;;;6.30;99.90;;;;;;5033573;28;20025;-50
2022/01/23 07:46:41;;;;;;;39.97;23.98;;;6.30;99.90;;;;;;5015628;28;20029;-52
2022/01/23 07:49:07;;;;;;;39.55;23.42;;;6.30;99.90;;;;;;5033279;28;20025;-51
2022/01/23 07:51:32;;;;;;;38.35;23.15;;;6.30;99.90;;;;;;5033169;28;20041;-49
2022/01/23 07:53:58;;;;;;;39.83;23.42;;;6.20;99.90;;;;;;5068410;23;20057;-43
2022/01/23 07:56:23;;;;;;;39.28;22.50;;;6.20;99.90;;;;;;5051889;28;20064;-46
2022/01/23 07:58:49;;;;;;;38.92;23.75;;;6.20;99.90;;;;;;5035374;28;20028;-48
2022/01/23 08:01:14;;;;;;;42.17;24.48;;;6.30;99.90;;;;;;5053084;28;20496;-47
2022/01/23 08:03:40;;;;;;;38.03;22.90;;;6.40;99.90;;;;;;5053009;28;20036;-51
2022/01/23 08:06:06;;;;;;;40.75;23.15;;;6.40;99.90;;;;;;5053125;28;20029;-47
2022/01/23 08:08:32;;;;;;;36.75;22.52;;;6.30;99.90;;;;;;5053030;28;20036;-47
2022/01/23 08:10:58;;;;;;;37.88;23.10;;;6.20;99.90;;;;;;5051550;28;20021;-48
2022/01/23 08:13:23;;;;;;;43.42;25.13;;;6.10;99.90;;;;;;5051562;28;20083;-48
2022/01/23 08:15:48;;;;;;;41.80;25.52;;;6.00;99.90;;;;;;5052926;28;20033;-46
2022/01/23 08:18:17;;;;;;;40.40;24.30;;;6.00;99.90;;;;;;5052795;28;20033;-45
2022/01/23 08:20:43;;;;;;;45.53;26.13;;;5.90;99.90;;;;;;5052659;28;20554;-46
2022/01/23 08:23:08;;;;;;;39.88;24.88;;;5.90;99.90;;;;;;5052421;28;20469;-46
2022/01/23 08:25:34;;;;;;;34.92;23.40;;;5.90;99.90;;;;;;5052664;28;20021;-47
2022/01/23 08:28:01;;;;;;;36.97;23.20;;;5.90;99.90;;;;;;5052807;28;20166;-43
2022/01/23 08:30:27;;;;;;;42.70;24.48;;;6.00;99.90;;;;;;5052635;28;20488;-45
2022/01/23 08:32:53;;;;;;;45.95;25.83;;;6.00;99.90;;;;;;5052805;28;20064;-48
2022/01/23 08:35:20;;;;;;;39.70;24.10;;;6.10;99.90;;;;;;5053193;28;20053;-46
2022/01/23 08:37:46;;;;;;;37.05;23.77;;;6.10;99.90;;;;;;5048736;28;20034;-42
2022/01/23 08:40:22;;;;;;;37.72;24.00;;;6.10;99.90;;;;;;5032274;28;20079;-48
2022/01/23 08:42:48;;;;;;;40.42;24.90;;;6.20;99.90;;;;;;5032555;28;20485;-49
2022/01/23 08:45:14;;;;;;;48.00;27.73;;;6.30;99.90;;;;;;5047756;28;20043;-48
2022/01/23 08:47:40;;;;;;;50.33;27.27;;;6.30;99.90;;;;;;5045595;28;20013;-46
2022/01/23 08:50:07;;;;;;;44.70;27.58;;;6.20;99.90;;;;;;5039150;28;20037;-42
2022/01/23 08:52:32;;;;;;;42.05;25.38;;;6.10;99.90;;;;;;5042020;28;20026;-46
2022/01/23 08:54:58;;;;;;;41.70;25.38;;;6.00;99.90;;;;;;5043922;28;20296;-46
2022/01/23 08:57:25;;;;;;;41.17;26.05;;;5.90;99.90;;;;;;5039427;28;20029;-46
2022/01/23 08:59:51;;;;;;;39.53;25.33;;;5.80;99.90;;;;;;5051854;28;20028;-49
2022/01/23 09:02:18;;;;;;;47.80;26.00;;;5.80;99.90;;;;;;5043863;28;20285;-45
2022/01/23 09:04:45;;;;;;;42.70;26.55;;;5.90;99.90;;;;;;5031793;28;20025;-41
2022/01/23 09:07:10;;;;;;;40.72;26.02;;;5.80;99.90;;;;;;5047753;28;20021;-45
2022/01/23 09:09:37;;;;;;;41.60;28.50;;;5.90;99.90;;;;;;5051578;28;20040;-48
2022/01/23 09:14:30;;;;;;;42.78;26.42;;;5.90;99.90;;;;;;5043308;28;20030;-46
2022/01/23 09:16:55;;;;;;;38.20;24.33;;;6.00;99.90;;;;;;5034137;28;20030;-42
2022/01/23 09:19:23;;;;;;;40.90;24.92;;;6.00;99.90;;;;;;5035769;28;20112;-51
2022/01/23 09:21:49;;;;;;;44.40;25.25;;;6.00;99.90;;;;;;5036621;28;20108;-46
2022/01/23 09:24:19;;;;;;;49.88;28.33;;;6.00;99.90;;;;;;5047467;28;20094;-46
2022/01/23 09:26:52;;;;;;;39.42;25.38;;;6.10;99.90;;;;;;5051383;28;20074;-48
2022/01/23 09:29:25;;;;;;;36.00;24.52;;;6.10;99.90;;;;;;5051553;28;20104;-46
2022/01/23 09:31:52;;;;;;;34.00;22.52;;;6.10;99.90;;;;;;5050320;28;20446;-49
2022/01/23 09:34:20;;;;;;;40.30;25.60;;;6.00;99.90;;;;;;5049082;28;20404;-46
2022/01/23 09:36:46;;;;;;;38.08;25.42;;;6.10;99.90;;;;;;5046142;28;20040;-43
2022/01/23 09:39:15;;;;;;;39.70;25.92;;;6.10;99.90;;;;;;5051619;28;20088;-45
2022/01/23 09:41:48;;;;;;;38.42;25.45;;;6.10;99.90;;;;;;5051346;28;20428;-46
2022/01/23 09:44:16;;;;;;;41.60;27.15;;;6.10;99.90;;;;;;5049741;28;20079;-47
2022/01/23 09:46:43;;;;;;;44.63;27.92;;;6.10;99.90;;;;;;5051329;28;20020;-46
2022/01/23 09:49:10;;;;;;;44.45;27.33;;;6.10;99.90;;;;;;5051825;28;20415;-43
2022/01/23 09:51:40;;;;;;;39.97;27.52;;;6.00;99.90;;;;;;5051581;28;20380;-47
2022/01/23 09:54:09;;;;;;;42.17;26.90;;;6.10;99.90;;;;;;5050902;28;20112;-46
2022/01/23 09:56:35;;;;;;;43.88;25.08;;;6.10;99.90;;;;;;5051819;28;20075;-48
2022/01/23 09:59:01;;;;;;;43.28;25.75;;;6.10;99.90;;;;;;5055545;28;20579;-46
2022/01/23 10:01:27;;;;;;;38.97;24.63;;;6.20;99.90;;;;;;5055340;28;20104;-50
2022/01/23 10:03:53;;;;;;;39.13;24.42;;;6.20;99.90;;;;;;5055363;28;20024;-46
2022/01/23 10:06:19;;;;;;;38.90;23.23;;;6.20;99.90;;;;;;5055434;28;20021;-48
2022/01/23 10:08:45;;;;;;;40.72;25.80;;;6.30;99.90;;;;;;5055008;28;20021;-45
2022/01/23 10:11:13;;;;;;;38.70;25.58;;;6.40;99.90;;;;;;5055221;28;20068;-49
2022/01/23 10:13:41;;;;;;;38.40;24.52;;;6.50;99.90;;;;;;5054707;28;20041;-50
2022/01/23 10:16:07;;;;;;;41.75;24.25;;;6.50;99.90;;;;;;5055073;28;20380;-49
2022/01/23 10:18:32;;;;;;;40.47;24.73;;;6.50;99.90;;;;;;5054975;28;20032;-45
2022/01/23 10:20:58;;;;;;;38.35;24.35;;;6.50;99.90;;;;;;5054921;28;20033;-42
2022/01/23 10:23:25;;;;;;;45.97;24.70;;;6.60;99.90;;;;;;5054643;28;20025;-46
2022/01/23 10:25:52;;;;;;;42.55;26.65;;;6.60;99.90;;;;;;5055067;28;20492;-45
2022/01/23 10:28:21;;;;;;;40.42;24.35;;;6.70;99.90;;;;;;5053637;28;20040;-44
2022/01/23 10:30:51;;;;;;;39.40;24.30;;;6.70;99.90;;;;;;5053459;28;20063;-42
2022/01/23 10:33:34;;;;;;;43.10;25.42;;;6.80;99.90;;;;;;5054530;28;20070;-45
2022/01/23 10:36:10;;;;;;;41.08;24.98;;;6.80;99.90;;;;;;5054904;28;20094;-48
2022/01/23 10:38:58;;;;;;;43.50;25.75;;;6.90;99.90;;;;;;5054724;28;20053;-49
2022/01/23 10:49:54;;;;;;;42.25;25.92;;;7.00;99.90;;;;;;5054376;28;20094;-45
2022/01/23 10:52:40;;;;;;;40.33;23.27;;;7.00;99.90;;;;;;5054238;28;20021;-42
2022/01/23 10:55:28;;;;;;;47.50;26.23;;;7.00;99.90;;;;;;5054147;28;20099;-41
2022/01/23 10:57:58;;;;;;;38.20;24.70;;;7.00;99.90;;;;;;5052611;28;20021;-46
2022/01/23 11:00:35;;;;;;;39.38;25.48;;;7.10;99.90;;;;;;5052556;28;20017;-45
2022/01/23 11:03:19;;;;;;;44.42;24.67;;;7.20;99.90;;;;;;5054085;28;20079;-47
2022/01/23 11:05:45;;;;;;;55.95;34.00;;;7.20;99.90;;;;;;5054162;28;20013;-45
2022/01/23 11:08:25;;;;;;;59.88;36.53;;;7.20;99.90;;;;;;5053786;28;20051;-44
2022/01/23 11:11:06;;;;;;;42.40;24.90;;;7.20;99.90;;;;;;5054130;28;20033;-44
2022/01/23 11:19:24;;;;;;;38.13;24.95;;;7.30;99.90;;;;;;5052354;28;20060;-49
2022/01/23 11:21:52;;;;;;;43.63;26.35;;;7.30;99.90;;;;;;5046666;28;20064;-47
2022/01/23 11:24:19;;;;;;;42.08;26.30;;;7.30;99.90;;;;;;5033540;28;20564;-47
2022/01/23 11:26:44;;;;;;;41.72;25.98;;;7.30;99.90;;;;;;5042431;28;20017;-41
2022/01/23 11:29:17;;;;;;;41.13;25.48;;;7.40;99.90;;;;;;5053697;28;20541;-50
2022/01/23 11:31:44;;;;;;;40.88;24.98;;;7.40;99.90;;;;;;5053720;28;20028;-47
2022/01/23 11:34:12;;;;;;;44.25;25.58;;;7.40;99.90;;;;;;5053414;28;20032;-46
2022/01/23 11:36:38;;;;;;;41.85;24.05;;;7.40;99.90;;;;;;5054137;28;20028;-47
2022/01/23 11:39:14;;;;;;;35.15;22.73;;;7.40;99.90;;;;;;5044203;28;20361;-41
2022/01/23 11:53:51;;;;;;;36.28;22.92;;;7.60;99.90;;;;;;5033288;28;20033;-40
2022/01/23 11:56:26;;;;;;;37.47;23.73;;;7.60;99.90;;;;;;5033420;28;20044;-48
2022/01/23 11:59:17;;;;;;;40.70;24.50;;;7.50;99.90;;;;;;5033283;28;20048;-49
2022/01/23 12:01:45;;;;;;;38.15;24.48;;;7.50;99.90;;;;;;5038002;28;20029;-46
2022/01/23 12:04:18;;;;;;;35.72;22.20;;;7.50;99.90;;;;;;5032678;28;20064;-46
2022/01/23 12:06:46;;;;;;;40.38;25.10;;;7.60;99.90;;;;;;5034196;28;20409;-45
2022/01/23 12:09:16;;;;;;;34.38;20.33;;;7.60;99.90;;;;;;5034098;28;20029;-46
2022/01/23 12:12:25;;;;;;;36.22;22.55;;;7.80;99.90;;;;;;5033423;28;20029;-45
2022/01/23 12:18:28;;;;;;;36.45;21.15;;;7.80;99.90;;;;;;5033677;28;20032;-41
2022/01/23 12:20:55;;;;;;;30.88;20.25;;;7.80;99.90;;;;;;5032282;28;20033;-41
2022/01/23 12:23:21;;;;;;;34.60;22.17;;;7.70;99.90;;;;;;5033362;28;20029;-47
2022/01/23 12:25:50;;;;;;;30.73;20.52;;;7.70;99.90;;;;;;5034149;28;20045;-51
2022/01/23 12:28:27;;;;;;;30.45;19.20;;;7.70;99.90;;;;;;5051423;28;20096;-53
2022/01/23 12:31:18;;;;;;;28.77;18.88;;;7.60;99.90;;;;;;5042465;28;20025;-50
2022/01/23 12:33:46;;;;;;;30.38;19.00;;;7.70;99.90;;;;;;5033496;28;20049;-49
2022/01/23 12:36:14;;;;;;;26.83;16.73;;;7.80;99.90;;;;;;5038406;28;20044;-45
2022/01/23 12:38:46;;;;;;;28.88;17.52;;;7.90;99.90;;;;;;5046402;28;20052;-49
2022/01/23 12:41:20;;;;;;;24.02;16.08;;;8.00;99.90;;;;;;5038073;28;20017;-49
2022/01/23 12:43:46;;;;;;;26.25;16.75;;;8.10;99.90;;;;;;5039436;28;20044;-48
2022/01/23 12:46:23;;;;;;;25.55;16.73;;;8.10;99.90;;;;;;5053525;28;20060;-47
2022/01/23 12:48:49;;;;;;;27.33;18.17;;;8.10;99.90;;;;;;5054311;28;20048;-48
2022/01/23 12:51:17;;;;;;;32.13;18.35;;;8.00;99.90;;;;;;5052626;28;20017;-45
2022/01/23 12:53:46;;;;;;;33.00;19.98;;;8.00;99.90;;;;;;5052184;28;20087;-50
2022/01/23 12:56:16;;;;;;;29.73;17.45;;;8.00;99.90;;;;;;5052997;28;20029;-50
2022/01/23 12:58:49;;;;;;;26.50;17.10;;;8.00;99.90;;;;;;5052720;28;20079;-47
2022/01/23 13:01:18;;;;;;;21.55;14.90;;;8.00;99.90;;;;;;5052719;28;20025;-49
2022/01/23 13:03:58;;;;;;;20.17;13.30;;;8.00;99.90;;;;;;5052172;28;20021;-44
2022/01/23 13:06:37;;;;;;;22.92;14.63;;;7.90;99.90;;;;;;5052041;28;20032;-48
2022/01/23 13:12:06;;;;;;;29.48;16.50;;;7.90;99.90;;;;;;5038526;28;20033;-41
2022/01/23 13:14:48;;;;;;;22.05;14.32;;;7.90;99.90;;;;;;5046914;28;20108;-50
2022/01/23 13:30:36;;;;;;;25.17;15.82;;;7.80;99.90;;;;;;5051195;28;20108;-47
2022/01/23 13:33:08;;;;;;;23.02;13.45;;;7.80;99.90;;;;;;5049602;28;20028;-45
2022/01/23 13:35:39;;;;;;;22.58;14.13;;;7.70;99.90;;;;;;5049903;28;20163;-45
2022/01/23 13:38:10;;;;;;;22.13;14.18;;;7.70;99.90;;;;;;5051327;28;20058;-41
2022/01/23 13:40:40;;;;;;;25.08;14.95;;;7.60;99.90;;;;;;5049387;28;20029;-41
2022/01/23 13:59:31;;;;;;;20.02;12.32;;;7.60;99.90;;;;;;5047547;28;20095;-45
2022/01/23 14:04:29;;;;;;;21.88;13.68;;;7.60;99.90;;;;;;5050748;28;20472;-47
2022/01/23 14:06:55;;;;;;;21.75;12.55;;;7.50;99.90;;;;;;5047305;28;20035;-48
2022/01/23 14:09:24;;;;;;;18.10;12.63;;;7.50;99.90;;;;;;5039725;28;20452;-48
2022/01/23 14:11:50;;;;;;;19.30;11.52;;;7.50;99.90;;;;;;5031288;28;20025;-48
2022/01/23 14:14:17;;;;;;;21.52;13.43;;;7.40;99.90;;;;;;5044259;28;20025;-49
2022/01/23 14:16:44;;;;;;;20.73;13.65;;;7.40;99.90;;;;;;5050934;28;20029;-48
2022/01/23 14:19:27;;;;;;;20.40;12.90;;;7.40;99.90;;;;;;5050301;28;20033;-48
2022/01/23 14:21:59;;;;;;;23.67;13.18;;;7.30;99.90;;;;;;5044373;28;20057;-50
2022/01/23 14:24:36;;;;;;;25.17;14.77;;;7.40;99.90;;;;;;5031685;28;20389;-52
2022/01/23 14:27:10;;;;;;;21.88;14.60;;;7.50;99.90;;;;;;5031241;28;20030;-47
2022/01/23 14:29:53;;;;;;;22.67;15.00;;;7.50;99.90;;;;;;5030043;28;20013;-46
2022/01/23 14:32:39;;;;;;;23.00;14.40;;;7.40;99.90;;;;;;5030717;28;20037;-49
2022/01/23 14:35:06;;;;;;;26.08;12.63;;;7.40;99.90;;;;;;5033730;28;20021;-49
2022/01/23 14:37:32;;;;;;;19.83;11.77;;;7.30;99.90;;;;;;5050714;28;20036;-49
2022/01/23 14:40:15;;;;;;;22.35;12.95;;;7.40;99.90;;;;;;5037982;28;20393;-47
2022/01/23 14:42:55;;;;;;;15.77;9.90;;;7.50;99.90;;;;;;5032290;28;20109;-51
2022/01/23 14:45:21;;;;;;;17.02;11.10;;;7.40;99.90;;;;;;5034289;28;20018;-48
2022/01/23 14:47:47;;;;;;;16.52;10.77;;;7.50;99.90;;;;;;5034493;28;20025;-46
2022/01/23 14:50:12;;;;;;;14.68;9.45;;;7.50;99.90;;;;;;5034493;28;20397;-46
2022/01/23 14:52:41;;;;;;;15.50;10.32;;;7.60;99.90;;;;;;5032788;28;20033;-45
2022/01/23 14:55:08;;;;;;;14.70;9.25;;;7.40;99.90;;;;;;5034267;28;20558;-47
2022/01/23 14:57:34;;;;;;;13.63;8.52;;;7.40;99.90;;;;;;5034212;28;20041;-48
2022/01/23 15:00:03;;;;;;;11.05;7.38;;;7.40;99.90;;;;;;5035655;28;20021;-47
2022/01/23 15:02:32;;;;;;;13.50;7.63;;;7.40;99.90;;;;;;5054183;28;20083;-52
2022/01/23 15:05:02;;;;;;;10.23;7.78;;;7.30;99.90;;;;;;5051740;28;20063;-49
2022/01/23 15:07:34;;;;;;;13.73;8.43;;;7.30;99.90;;;;;;5037336;28;20484;-51
2022/01/23 15:09:59;;;;;;;12.23;9.30;;;7.50;99.90;;;;;;5052602;28;20039;-48
2022/01/23 15:12:24;;;;;;;14.60;8.38;;;7.40;99.90;;;;;;5049660;28;20033;-49
2022/01/23 15:14:50;;;;;;;12.80;8.23;;;7.40;99.90;;;;;;5033920;28;20034;-46
2022/01/23 15:17:16;;;;;;;12.07;8.38;;;7.50;99.90;;;;;;5040010;28;20036;-46
2022/01/23 15:19:41;;;;;;;11.27;7.35;;;7.50;99.90;;;;;;5053466;28;20123;-51
2022/01/23 15:22:07;;;;;;;12.65;8.18;;;7.40;99.90;;;;;;5053422;28;20565;-49
2022/01/23 15:24:33;;;;;;;14.48;8.15;;;7.40;99.90;;;;;;5038428;28;20424;-47
2022/01/23 15:26:58;;;;;;;17.05;8.00;;;7.40;99.90;;;;;;5033712;28;20520;-47
2022/01/23 15:29:24;;;;;;;8.98;6.70;;;7.40;99.90;;;;;;5038663;28;20422;-49
2022/01/23 15:31:50;;;;;;;10.70;6.88;;;7.50;99.90;;;;;;5053630;28;20040;-46
2022/01/23 15:34:15;;;;;;;12.88;6.97;;;7.60;99.90;;;;;;5053247;28;20384;-47
2022/01/23 15:36:42;;;;;;;12.27;7.10;;;7.60;99.90;;;;;;5051792;28;20025;-51
2022/01/23 15:39:07;;;;;;;10.15;6.55;;;7.60;99.90;;;;;;5053452;28;20480;-47
2022/01/23 15:41:33;;;;;;;11.02;6.90;;;7.50;99.90;;;;;;5053249;28;20093;-50
2022/01/23 15:43:59;;;;;;;9.25;6.00;;;7.50;99.90;;;;;;5051560;28;20503;-49
2022/01/23 15:46:24;;;;;;;9.15;5.75;;;7.40;99.90;;;;;;5042807;28;20404;-49
2022/01/23 15:48:50;;;;;;;8.15;4.60;;;7.50;99.90;;;;;;5033490;28;20055;-48
2022/01/23 15:51:15;;;;;;;11.20;6.57;;;7.50;99.90;;;;;;5033476;28;20476;-51
2022/01/23 15:53:41;;;;;;;9.63;5.80;;;7.50;99.90;;;;;;5032484;28;20038;-48
2022/01/23 15:56:07;;;;;;;9.18;6.60;;;7.50;99.90;;;;;;5046284;28;20029;-50
2022/01/23 15:58:32;;;;;;;12.57;5.85;;;7.50;99.90;;;;;;5052778;28;20449;-52
2022/01/23 16:00:58;;;;;;;7.40;6.03;;;7.50;99.90;;;;;;5050803;28;20033;-47
2022/01/23 16:03:26;;;;;;;10.38;6.28;;;7.30;99.90;;;;;;5052446;28;20029;-47
2022/01/23 16:05:52;;;;;;;6.97;4.82;;;7.30;99.90;;;;;;5052771;28;20010;-50
2022/01/23 16:08:19;;;;;;;5.88;4.13;;;7.30;99.90;;;;;;5051248;28;20029;-51
2022/01/23 16:10:45;;;;;;;5.45;3.40;;;7.30;99.90;;;;;;5033861;28;20042;-48